createdAt,value
2019-02-21T00:01:34.772Z,27.67
2019-02-21T00:04:04.907Z,26.00
2019-02-21T00:06:31.183Z,21.02
2019-02-21T00:08:57.358Z,33.28
2019-02-21T00:11:23.508Z,28.10
2019-02-21T00:13:49.646Z,29.85
2019-02-21T00:16:15.908Z,26.05
2019-02-21T00:18:42.004Z,27.13
2019-02-21T00:21:08.314Z,25.35
2019-02-21T00:23:37.885Z,27.52
2019-02-21T00:26:08.794Z,28.77
2019-02-21T00:28:34.922Z,25.90
2019-02-21T00:31:01.170Z,25.20
2019-02-21T00:33:30.797Z,28.87
2019-02-21T00:35:56.996Z,24.65
2019-02-21T00:38:23.110Z,26.40
2019-02-21T00:40:49.342Z,26.82
2019-02-21T00:43:15.394Z,28.73
2019-02-21T00:45:45.493Z,24.65
2019-02-21T00:48:14.866Z,19.57
2019-02-21T00:50:47.191Z,26.90
2019-02-21T00:53:13.274Z,24.90
2019-02-21T00:55:39.496Z,28.80
2019-02-21T00:58:05.585Z,26.90
2019-02-21T01:00:31.792Z,28.55
2019-02-21T01:02:58.928Z,27.00
2019-02-21T01:05:25.116Z,27.48
2019-02-21T01:07:51.278Z,31.82
2019-02-21T01:10:17.424Z,27.60
2019-02-21T01:12:43.551Z,25.43
2019-02-21T01:15:09.741Z,31.73
2019-02-21T01:17:35.899Z,27.52
2019-02-21T01:20:05.859Z,27.27
2019-02-21T01:22:31.953Z,29.12
2019-02-21T01:24:58.166Z,28.85
2019-02-21T01:27:24.263Z,27.87
2019-02-21T01:29:53.457Z,26.75
2019-02-21T01:32:20.945Z,31.02
2019-02-21T01:34:48.229Z,29.50
2019-02-21T01:37:15.871Z,27.20
2019-02-21T01:39:42.080Z,28.42
2019-02-21T01:42:11.054Z,25.40
2019-02-21T01:44:37.384Z,27.93
2019-02-21T01:47:03.600Z,31.35
2019-02-21T01:49:30.811Z,31.12
2019-02-21T01:51:56.994Z,30.45
2019-02-21T01:54:23.120Z,27.27
2019-02-21T01:56:49.329Z,32.20
2019-02-21T01:59:15.447Z,28.35
2019-02-21T02:01:43.003Z,27.90
2019-02-21T02:04:09.100Z,30.02
2019-02-21T02:06:35.314Z,30.40
2019-02-21T02:09:01.402Z,32.70
2019-02-21T02:11:29.501Z,31.68
2019-02-21T02:13:56.803Z,35.20
2019-02-21T02:16:22.998Z,32.20
2019-02-21T02:18:49.227Z,28.05
2019-02-21T02:21:15.418Z,31.05
2019-02-21T02:23:45.226Z,26.37
2019-02-21T02:26:11.558Z,27.95
2019-02-21T02:28:37.735Z,29.82
2019-02-21T02:31:03.953Z,31.35
2019-02-21T02:33:31.759Z,30.55
2019-02-21T02:35:58.022Z,25.40
2019-02-21T02:38:24.215Z,30.72
2019-02-21T02:40:50.464Z,33.10
2019-02-21T02:43:16.718Z,32.25
2019-02-21T02:45:42.961Z,27.32
2019-02-21T02:48:09.248Z,26.50
2019-02-21T02:50:35.349Z,24.75
2019-02-21T02:53:05.447Z,30.68
2019-02-21T02:55:31.603Z,17.23
2019-02-21T02:57:58.019Z,29.07
2019-02-21T03:00:24.204Z,26.62
2019-02-21T03:02:50.400Z,28.05
2019-02-21T03:05:16.515Z,25.05
2019-02-21T03:07:42.755Z,28.95
2019-02-21T03:10:10.659Z,30.70
2019-02-21T03:12:36.856Z,28.67
2019-02-21T03:15:04.465Z,24.77
2019-02-21T03:17:33.943Z,25.97
2019-02-21T03:20:00.035Z,29.10
2019-02-21T03:22:26.332Z,29.55
2019-02-21T03:24:52.430Z,29.63
2019-02-21T03:27:18.738Z,28.05
2019-02-21T03:29:44.837Z,27.27
2019-02-21T03:32:11.068Z,30.12
2019-02-21T03:34:37.312Z,31.97
2019-02-21T03:37:05.631Z,26.27
2019-02-21T03:39:32.024Z,27.00
2019-02-21T03:42:01.101Z,27.07
2019-02-21T03:44:27.343Z,26.15
2019-02-21T03:46:53.627Z,28.60
2019-02-21T03:49:19.895Z,27.02
2019-02-21T03:51:46.058Z,26.97
2019-02-21T03:54:13.084Z,32.38
2019-02-21T03:56:39.348Z,24.87
2019-02-21T03:59:05.699Z,30.00
2019-02-21T04:01:31.889Z,29.63
2019-02-21T04:03:58.108Z,29.40
2019-02-21T04:06:24.209Z,28.10
2019-02-21T04:08:50.438Z,25.02
2019-02-21T04:11:16.550Z,26.37
2019-02-21T04:13:44.112Z,28.30
2019-02-21T04:16:10.235Z,31.30
2019-02-21T04:18:36.492Z,27.85
2019-02-21T04:21:02.705Z,25.05
2019-02-21T04:23:28.912Z,32.05
2019-02-21T04:25:55.154Z,25.92
2019-02-21T04:28:23.929Z,25.12
2019-02-21T04:30:50.037Z,27.58
2019-02-21T04:33:16.227Z,29.57
2019-02-21T04:35:42.399Z,28.20
2019-02-21T04:38:08.687Z,34.10
2019-02-21T04:40:34.805Z,29.10
2019-02-21T04:43:01.095Z,27.52
2019-02-21T04:45:27.183Z,27.22
2019-02-21T04:47:53.378Z,28.27
2019-02-21T04:50:19.466Z,28.67
2019-02-21T04:52:48.034Z,27.42
2019-02-21T04:55:14.970Z,26.52
2019-02-21T04:57:41.174Z,26.80
2019-02-21T05:00:12.007Z,32.93
2019-02-21T05:02:38.205Z,27.80
2019-02-21T05:05:04.923Z,31.97
2019-02-21T05:07:34.710Z,36.68
2019-02-21T05:10:03.669Z,34.92
2019-02-21T05:12:30.199Z,31.82
2019-02-21T05:14:56.473Z,31.95
2019-02-21T05:17:22.729Z,37.05
2019-02-21T05:19:49.071Z,29.18
2019-02-21T05:22:15.332Z,31.10
2019-02-21T05:24:41.496Z,35.35
2019-02-21T05:27:09.667Z,36.40
2019-02-21T05:29:35.946Z,33.65
2019-02-21T05:32:20.656Z,37.48
2019-02-21T05:35:05.361Z,31.60
2019-02-21T05:37:42.659Z,39.20
2019-02-21T05:40:10.912Z,33.33
2019-02-21T05:42:39.298Z,35.48
2019-02-21T05:45:11.322Z,30.35
2019-02-21T05:47:43.287Z,34.55
2019-02-21T05:50:31.760Z,30.50
2019-02-21T05:53:09.869Z,37.13
2019-02-21T05:55:40.870Z,33.65
2019-02-21T05:58:08.943Z,31.30
2019-02-21T06:00:55.553Z,31.87
2019-02-21T06:03:24.804Z,34.35
2019-02-21T06:05:56.020Z,34.25
2019-02-21T06:08:25.095Z,31.50
2019-02-21T06:10:59.157Z,28.83
2019-02-21T06:13:48.751Z,36.83
2019-02-21T06:16:22.654Z,33.58
2019-02-21T06:18:50.667Z,33.00
2019-02-21T06:21:18.775Z,32.60
2019-02-21T06:23:50.145Z,32.78
2019-02-21T06:26:27.682Z,33.20
2019-02-21T06:28:56.224Z,32.88
2019-02-21T06:31:22.464Z,33.92
2019-02-21T06:33:49.528Z,32.35
2019-02-21T06:36:15.953Z,30.92
2019-02-21T06:38:42.289Z,35.98
2019-02-21T06:41:08.403Z,38.35
2019-02-21T06:43:35.033Z,34.90
2019-02-21T06:46:02.113Z,34.98
2019-02-21T06:48:28.446Z,40.12
2019-02-21T06:50:54.683Z,38.02
2019-02-21T06:53:21.988Z,39.70
2019-02-21T06:55:48.179Z,35.85
2019-02-21T06:58:14.465Z,35.30
2019-02-21T07:00:40.975Z,35.63
2019-02-21T07:03:15.524Z,38.50
2019-02-21T07:05:36.963Z,38.17
2019-02-21T07:08:03.388Z,37.28
2019-02-21T07:10:29.693Z,36.58
2019-02-21T07:12:56.726Z,35.05
2019-02-21T07:15:23.623Z,34.85
2019-02-21T07:17:49.932Z,30.80
2019-02-21T07:20:17.201Z,36.48
2019-02-21T07:22:43.488Z,34.90
2019-02-21T07:25:24.000Z,34.55
2019-02-21T07:27:50.259Z,25.20
2019-02-21T07:30:20.195Z,32.67
2019-02-21T07:32:45.348Z,35.52
2019-02-21T07:35:11.544Z,34.92
2019-02-21T07:37:37.922Z,35.55
2019-02-21T07:40:05.746Z,37.28
2019-02-21T07:42:32.733Z,34.05
2019-02-21T07:44:59.890Z,36.55
2019-02-21T07:47:26.249Z,32.15
2019-02-21T07:49:52.413Z,37.45
2019-02-21T07:52:18.577Z,34.95
2019-02-21T07:54:44.785Z,30.72
2019-02-21T07:57:11.875Z,33.00
2019-02-21T07:59:38.385Z,29.57
2019-02-21T08:02:04.877Z,35.30
2019-02-21T08:04:31.782Z,31.35
2019-02-21T08:06:58.235Z,34.85
2019-02-21T08:09:27.658Z,29.35
2019-02-21T08:11:53.059Z,31.17
2019-02-21T08:14:19.299Z,30.68
2019-02-21T08:16:45.491Z,30.57
2019-02-21T08:19:11.642Z,31.27
2019-02-21T08:21:37.870Z,31.52
2019-02-21T08:24:04.053Z,30.23
2019-02-21T08:26:30.221Z,34.03
2019-02-21T08:28:56.451Z,31.37
2019-02-21T08:31:22.582Z,28.38
2019-02-21T08:33:58.357Z,33.13
2019-02-21T08:36:21.788Z,31.37
2019-02-21T08:38:47.992Z,29.18
2019-02-21T08:41:14.674Z,28.05
2019-02-21T08:43:41.071Z,30.17
2019-02-21T08:46:07.173Z,30.15
2019-02-21T08:48:33.545Z,35.05
2019-02-21T08:50:59.657Z,31.35
2019-02-21T08:53:27.972Z,35.58
2019-02-21T08:55:55.932Z,28.90
2019-02-21T08:58:22.050Z,30.12
2019-02-21T09:00:48.241Z,30.45
2019-02-21T09:03:14.410Z,27.13
2019-02-21T09:05:40.666Z,30.60
2019-02-21T09:08:06.904Z,27.40
2019-02-21T09:10:33.084Z,33.15
2019-02-21T09:12:59.331Z,30.62
2019-02-21T09:15:25.433Z,27.42
2019-02-21T09:17:54.032Z,28.47
2019-02-21T09:20:19.700Z,28.85
2019-02-21T09:22:45.895Z,30.85
2019-02-21T09:25:13.763Z,28.07
2019-02-21T09:27:39.947Z,29.15
2019-02-21T09:30:13.099Z,30.23
2019-02-21T09:32:42.039Z,32.58
2019-02-21T09:35:08.323Z,28.40
2019-02-21T09:37:34.534Z,29.85
2019-02-21T09:40:00.649Z,33.33
2019-02-21T09:42:26.865Z,29.90
2019-02-21T09:44:52.969Z,28.85
2019-02-21T09:47:22.765Z,30.68
2019-02-21T09:49:49.069Z,31.00
2019-02-21T09:52:15.349Z,32.17
2019-02-21T09:54:48.297Z,34.23
2019-02-21T09:57:14.530Z,35.77
2019-02-21T09:59:40.629Z,37.17
2019-02-21T10:02:10.232Z,38.28
2019-02-21T10:04:36.345Z,36.28
2019-02-21T10:07:07.479Z,39.67
2019-02-21T10:11:59.778Z,34.25
2019-02-21T10:14:26.685Z,34.95
2019-02-21T10:16:55.372Z,30.82
2019-02-21T10:19:21.486Z,33.02
2019-02-21T10:21:47.727Z,29.45
2019-02-21T10:24:17.295Z,30.23
2019-02-21T10:26:47.206Z,31.05
2019-02-21T10:29:17.163Z,29.20
2019-02-21T10:31:43.342Z,31.62
2019-02-21T10:34:09.575Z,30.27
2019-02-21T10:36:40.367Z,26.55
2019-02-21T10:39:06.514Z,33.08
2019-02-21T10:41:35.979Z,34.48
2019-02-21T10:44:02.139Z,31.52
2019-02-21T10:46:30.759Z,31.70
2019-02-21T10:48:56.362Z,27.85
2019-02-21T10:51:23.535Z,25.50
2019-02-21T10:53:49.683Z,27.35
2019-02-21T10:56:17.314Z,25.20
2019-02-21T10:58:43.677Z,29.72
2019-02-21T11:01:13.236Z,28.07
2019-02-21T11:03:42.344Z,26.35
2019-02-21T11:06:08.517Z,25.20
2019-02-21T11:08:34.693Z,26.52
2019-02-21T11:11:06.196Z,30.20
2019-02-21T11:13:32.367Z,30.77
2019-02-21T11:15:58.640Z,30.37
2019-02-21T11:18:24.893Z,28.52
2019-02-21T11:20:54.268Z,30.40
2019-02-21T11:23:22.813Z,32.35
2019-02-21T11:25:49.054Z,29.07
2019-02-21T11:28:18.369Z,28.40
2019-02-21T11:30:44.598Z,30.60
2019-02-21T11:33:13.626Z,29.50
2019-02-21T11:35:40.120Z,30.95
2019-02-21T11:38:06.345Z,25.92
2019-02-21T11:40:32.687Z,29.67
2019-02-21T11:43:03.886Z,30.32
2019-02-21T11:47:59.533Z,28.25
2019-02-21T11:50:25.756Z,27.70
2019-02-21T11:52:51.999Z,24.15
2019-02-21T11:55:20.462Z,28.10
2019-02-21T11:57:46.650Z,28.60
2019-02-21T12:00:19.382Z,30.77
2019-02-21T12:02:47.555Z,26.73
2019-02-21T12:05:17.397Z,26.33
2019-02-21T12:07:47.723Z,23.12
2019-02-21T12:10:13.883Z,28.70
2019-02-21T12:12:40.055Z,26.95
2019-02-21T12:15:11.905Z,24.87
2019-02-21T12:17:38.113Z,29.32
2019-02-21T12:20:08.574Z,22.67
2019-02-21T12:22:34.790Z,21.27
2019-02-21T12:25:00.947Z,23.02
2019-02-21T12:27:27.098Z,24.20
2019-02-21T12:29:53.321Z,24.30
2019-02-21T12:32:19.979Z,23.73
2019-02-21T12:34:46.182Z,26.55
2019-02-21T12:37:12.301Z,25.88
2019-02-21T12:39:38.526Z,24.75
2019-02-21T12:42:04.704Z,28.62
2019-02-21T12:44:32.763Z,23.80
2019-02-21T12:46:58.921Z,23.15
2019-02-21T12:49:27.107Z,28.10
2019-02-21T12:51:57.344Z,25.92
2019-02-21T12:54:24.721Z,25.10
2019-02-21T12:56:51.500Z,23.57
2019-02-21T12:59:17.747Z,24.87
2019-02-21T13:01:45.046Z,22.40
2019-02-21T13:04:11.305Z,22.85
2019-02-21T13:06:37.488Z,24.27
2019-02-21T13:09:04.261Z,26.65
2019-02-21T13:11:32.135Z,26.52
2019-02-21T13:13:59.104Z,24.87
2019-02-21T13:16:25.271Z,25.88
2019-02-21T13:18:51.572Z,24.67
2019-02-21T13:21:17.698Z,24.27
2019-02-21T13:23:45.125Z,23.55
2019-02-21T13:26:12.319Z,25.57
2019-02-21T13:28:38.616Z,22.73
2019-02-21T13:31:04.773Z,22.55
2019-02-21T13:33:30.997Z,25.32
2019-02-21T13:35:59.320Z,21.35
2019-02-21T13:38:25.552Z,23.18
2019-02-21T13:40:51.753Z,20.72
2019-02-21T13:43:19.278Z,24.92
2019-02-21T13:45:45.471Z,24.30
2019-02-21T13:48:11.637Z,23.27
2019-02-21T13:50:40.433Z,22.25
2019-02-21T13:53:06.675Z,23.75
2019-02-21T13:55:32.906Z,25.08
2019-02-21T13:58:00.554Z,20.48
2019-02-21T14:00:26.884Z,19.82
2019-02-21T14:02:53.017Z,23.32
2019-02-21T14:05:20.930Z,20.88
2019-02-21T14:07:47.097Z,24.65
2019-02-21T14:10:13.466Z,21.40
2019-02-21T14:12:39.646Z,20.68
2019-02-21T14:15:26.982Z,23.38
2019-02-21T14:17:53.100Z,20.82
2019-02-21T14:20:19.322Z,22.48
2019-02-21T14:22:45.419Z,20.37
2019-02-21T14:25:11.636Z,24.40
2019-02-21T14:27:41.370Z,19.65
2019-02-21T14:30:13.003Z,21.35
2019-02-21T14:32:39.190Z,22.48
2019-02-21T14:35:07.903Z,24.72
2019-02-21T14:37:39.069Z,23.07
2019-02-21T14:42:33.269Z,23.87
2019-02-21T14:44:59.472Z,23.52
2019-02-21T14:47:25.832Z,24.52
2019-02-21T14:49:52.095Z,22.15
2019-02-21T14:52:18.298Z,26.80
2019-02-21T14:54:44.636Z,23.07
2019-02-21T14:57:10.927Z,22.80
2019-02-21T14:59:44.629Z,24.40
2019-02-21T15:02:10.292Z,27.20
2019-02-21T15:04:38.279Z,26.10
2019-02-21T15:07:06.607Z,21.62
2019-02-21T15:09:33.129Z,24.27
2019-02-21T15:11:59.356Z,25.48
2019-02-21T15:14:25.720Z,21.95
2019-02-21T15:16:51.922Z,30.02
2019-02-21T15:19:18.040Z,23.40
2019-02-21T15:21:45.413Z,20.08
2019-02-21T15:24:13.124Z,23.70
2019-02-21T15:26:39.962Z,24.32
2019-02-21T15:29:06.141Z,25.35
2019-02-21T15:31:32.282Z,24.05
2019-02-21T15:33:58.555Z,21.45
2019-02-21T15:36:24.837Z,22.07
2019-02-21T15:38:51.108Z,21.77
2019-02-21T15:41:17.473Z,26.05
2019-02-21T15:43:43.726Z,26.42
2019-02-21T15:46:10.240Z,24.67
2019-02-21T15:48:40.805Z,31.65
2019-02-21T15:51:12.662Z,21.52
2019-02-21T15:53:40.267Z,25.48
2019-02-21T15:56:06.613Z,30.82
2019-02-21T15:58:32.977Z,31.80
2019-02-21T16:00:59.147Z,30.48
2019-02-21T16:03:27.499Z,34.08
2019-02-21T16:05:53.678Z,28.75
2019-02-21T16:08:19.842Z,31.68
2019-02-21T16:10:46.031Z,30.48
2019-02-21T16:13:12.301Z,32.10
2019-02-21T16:15:38.522Z,24.37
2019-02-21T16:18:07.386Z,29.12
2019-02-21T16:20:33.545Z,29.42
2019-02-21T16:22:59.858Z,27.02
2019-02-21T16:25:30.519Z,26.62
2019-02-21T16:27:56.765Z,25.55
2019-02-21T16:30:22.953Z,27.10
2019-02-21T16:32:53.906Z,26.70
2019-02-21T16:35:20.094Z,29.80
2019-02-21T16:37:46.349Z,30.43
2019-02-21T16:40:43.423Z,28.20
2019-02-21T16:43:09.595Z,26.23
2019-02-21T16:45:43.721Z,26.70
2019-02-21T16:48:05.137Z,27.62
2019-02-21T16:50:31.318Z,28.50
2019-02-21T16:52:57.545Z,22.77
2019-02-21T16:55:23.749Z,26.07
2019-02-21T16:57:49.949Z,27.98
2019-02-21T17:00:38.891Z,26.70
2019-02-21T17:02:56.580Z,28.07
2019-02-21T17:05:23.007Z,26.50
2019-02-21T17:07:49.245Z,26.48
2019-02-21T17:10:15.662Z,26.50
2019-02-21T17:12:41.852Z,28.98
2019-02-21T17:15:10.267Z,26.15
2019-02-21T17:17:36.647Z,26.25
2019-02-21T17:20:05.908Z,28.27
2019-02-21T17:22:32.137Z,24.72
2019-02-21T17:24:58.317Z,29.60
2019-02-21T17:27:27.914Z,31.57
2019-02-21T17:29:54.469Z,27.32
2019-02-21T17:32:23.736Z,33.60
2019-02-21T17:34:50.012Z,29.18
2019-02-21T17:37:24.621Z,29.12
2019-02-21T17:39:44.858Z,31.60
2019-02-21T17:42:11.066Z,30.88
2019-02-21T17:44:37.229Z,31.00
2019-02-21T17:47:03.440Z,33.60
2019-02-21T17:49:30.287Z,30.97
2019-02-21T17:52:01.002Z,31.73
2019-02-21T17:54:27.812Z,36.80
2019-02-21T17:56:54.153Z,35.45
2019-02-21T17:59:20.320Z,34.08
2019-02-21T18:01:46.487Z,36.23
2019-02-21T18:04:14.437Z,36.53
2019-02-21T18:06:45.538Z,37.73
2019-02-21T18:11:37.931Z,37.75
2019-02-21T18:14:04.343Z,42.17
2019-02-21T18:16:30.507Z,40.28
2019-02-21T18:18:56.742Z,44.65
2019-02-21T18:21:23.001Z,43.02
2019-02-21T18:23:49.213Z,46.13
2019-02-21T18:26:15.444Z,46.05
2019-02-21T18:28:41.891Z,53.05
2019-02-21T18:31:21.859Z,47.25
2019-02-21T18:33:52.062Z,42.88
2019-02-21T18:38:48.622Z,44.40
2019-02-21T18:41:14.828Z,45.50
2019-02-21T18:43:41.092Z,51.68
2019-02-21T18:46:09.170Z,46.30
2019-02-21T18:48:35.480Z,61.45
2019-02-21T18:51:01.609Z,46.92
2019-02-21T18:53:31.294Z,54.67
2019-02-21T18:55:57.571Z,48.35
2019-02-21T18:58:23.957Z,56.73
2019-02-21T19:00:54.041Z,41.60
2019-02-21T19:03:21.130Z,50.63
2019-02-21T19:05:51.424Z,57.73
2019-02-21T19:08:17.534Z,37.83
2019-02-21T19:10:43.759Z,53.73
2019-02-21T19:13:09.850Z,49.18
2019-02-21T19:15:36.178Z,55.43
2019-02-21T19:18:02.362Z,50.40
2019-02-21T19:20:28.671Z,59.13
2019-02-21T19:22:54.877Z,44.95
2019-02-21T19:25:21.020Z,55.85
2019-02-21T19:27:47.275Z,51.08
2019-02-21T19:30:17.323Z,46.80
2019-02-21T19:32:43.562Z,53.38
2019-02-21T19:35:09.749Z,50.92
2019-02-21T19:37:36.090Z,50.10
2019-02-21T19:40:05.208Z,50.58
2019-02-21T19:42:31.508Z,45.63
2019-02-21T19:44:57.690Z,54.70
2019-02-21T19:47:23.941Z,48.42
2019-02-21T19:49:51.623Z,47.27
2019-02-21T19:52:19.547Z,50.52
2019-02-21T19:54:45.782Z,45.38
2019-02-21T19:57:11.995Z,46.37
2019-02-21T19:59:38.119Z,46.77
2019-02-21T20:02:08.656Z,48.85
2019-02-21T20:04:36.985Z,36.90
2019-02-21T20:07:08.406Z,47.38
2019-02-21T20:09:34.767Z,52.40
2019-02-21T20:12:01.019Z,45.92
2019-02-21T20:14:30.589Z,47.38
2019-02-21T20:16:59.714Z,46.13
2019-02-21T20:19:28.775Z,50.55
2019-02-21T20:21:55.027Z,42.95
2019-02-21T20:24:21.244Z,49.58
2019-02-21T20:26:52.872Z,46.68
2019-02-21T20:29:19.090Z,50.30
2019-02-21T20:31:45.354Z,46.90
2019-02-21T20:34:12.988Z,45.85
2019-02-21T20:36:50.459Z,49.85
2019-02-21T20:39:07.775Z,52.65
2019-02-21T20:41:34.393Z,47.08
2019-02-21T20:44:03.411Z,51.10
2019-02-21T20:46:33.412Z,49.48
2019-02-21T20:49:01.683Z,52.20
2019-02-21T20:51:27.977Z,49.63
2019-02-21T20:53:54.208Z,48.13
2019-02-21T20:56:25.468Z,48.73
2019-02-21T20:58:52.732Z,54.65
2019-02-21T21:01:22.861Z,54.00
2019-02-21T21:03:49.122Z,40.63
2019-02-21T21:06:15.211Z,55.43
2019-02-21T21:08:44.328Z,60.55
2019-02-21T21:11:13.126Z,50.88
2019-02-21T21:13:44.167Z,53.38
2019-02-21T21:18:40.777Z,57.65
2019-02-21T21:21:10.638Z,63.85
2019-02-21T21:23:36.844Z,52.58
2019-02-21T21:26:03.224Z,56.70
2019-02-21T21:28:29.537Z,57.38
2019-02-21T21:30:55.701Z,54.83
2019-02-21T21:33:21.943Z,60.40
2019-02-21T21:35:48.128Z,57.95
2019-02-21T21:38:23.693Z,60.58
2019-02-21T21:40:42.467Z,55.38
2019-02-21T21:43:08.565Z,68.28
2019-02-21T21:45:34.789Z,58.50
2019-02-21T21:48:01.703Z,58.08
2019-02-21T21:50:29.014Z,65.25
2019-02-21T21:52:55.175Z,60.40
2019-02-21T21:55:23.708Z,63.70
2019-02-21T21:57:49.917Z,65.67
2019-02-21T22:00:21.128Z,69.67
2019-02-21T22:02:47.443Z,76.22
2019-02-21T22:05:13.667Z,65.65
2019-02-21T22:07:42.612Z,74.65
2019-02-21T22:10:13.052Z,67.47
2019-02-21T22:12:39.223Z,58.87
2019-02-21T22:15:08.703Z,72.42
2019-02-21T22:17:34.853Z,82.02
2019-02-21T22:20:00.994Z,81.00
2019-02-21T22:22:27.217Z,73.72
2019-02-21T22:24:56.543Z,81.25
2019-02-21T22:27:24.822Z,71.47
2019-02-21T22:29:51.205Z,70.35
2019-02-21T22:32:17.425Z,78.97
2019-02-21T22:34:43.755Z,78.78
2019-02-21T22:37:09.918Z,83.30
2019-02-21T22:39:36.167Z,78.83
2019-02-21T22:42:03.757Z,85.05
2019-02-21T22:44:31.749Z,79.70
2019-02-21T22:46:57.986Z,85.00
2019-02-21T22:49:24.076Z,86.60
2019-02-21T22:51:50.271Z,110.63
2019-02-21T22:54:18.578Z,74.60
2019-02-21T22:56:47.605Z,115.95
2019-02-21T22:59:17.564Z,94.13
2019-02-21T23:01:43.847Z,99.30
2019-02-21T23:04:14.570Z,117.85
2019-02-21T23:06:52.482Z,98.12
2019-02-21T23:09:28.309Z,100.30
2019-02-21T23:11:54.679Z,351.95
2019-02-21T23:14:20.788Z,133.78
2019-02-21T23:16:47.008Z,172.93
2019-02-21T23:19:13.792Z,292.30
2019-02-21T23:21:39.991Z,160.82
2019-02-21T23:24:06.085Z,119.30
2019-02-21T23:26:32.424Z,131.63
2019-02-21T23:29:00.807Z,133.25
2019-02-21T23:31:27.011Z,124.20
2019-02-21T23:33:59.308Z,140.28
2019-02-21T23:36:25.518Z,134.03
2019-02-21T23:38:51.625Z,126.45
2019-02-21T23:41:20.885Z,141.57
2019-02-21T23:43:47.350Z,117.22
2019-02-21T23:46:13.728Z,124.65
2019-02-21T23:48:43.745Z,133.97
2019-02-21T23:51:11.818Z,110.48
2019-02-21T23:53:37.920Z,127.58
2019-02-21T23:56:11.832Z,110.25
2019-02-21T23:58:37.924Z,113.15
